Time;durP1;ratioP1;P1;durP2;ratioP2;P2;SDS_P1;SDS_P2;PMS_P1;PMS_P2;Temp;Humidity;BMP_temperature;BMP_pressure;BME280_temperature;BME280_humidity;BME280_pressure;Samples;Min_cycle;Max_cycle;Signal;HPM_P1;HPM_P2
2022/08/02 00:01:44;;;;;;;5.17;4.80;;;22.60;97.90;;;;;;6180292;28;20381;-65
2022/08/02 00:04:47;;;;;;;4.80;4.50;;;22.60;97.80;;;;;;6168870;28;20246;-65
2022/08/02 00:07:52;;;;;;;5.50;5.10;;;22.50;97.90;;;;;;6167943;28;20371;-66
2022/08/02 00:10:55;;;;;;;4.93;4.53;;;22.50;98.10;;;;;;6168811;28;20639;-65
2022/08/02 00:13:58;;;;;;;5.80;5.10;;;22.60;98.30;;;;;;6169066;28;20371;-65
2022/08/02 00:17:02;;;;;;;5.43;5.03;;;22.60;98.20;;;;;;6164484;28;20298;-65
2022/08/02 00:20:06;;;;;;;5.90;5.50;;;22.60;98.20;;;;;;6168062;28;20802;-65
2022/08/02 00:23:11;;;;;;;6.40;6.00;;;22.60;98.10;;;;;;6167566;28;20354;-65
2022/08/02 00:26:14;;;;;;;5.10;4.80;;;22.70;98.20;;;;;;6166746;28;20373;-65
2022/08/02 00:29:17;;;;;;;5.37;5.03;;;22.60;98.10;;;;;;6168621;28;20298;-65
2022/08/02 00:32:21;;;;;;;6.10;5.60;;;22.50;98.10;;;;;;6163242;28;20687;-64
2022/08/02 00:35:24;;;;;;;6.43;5.80;;;22.40;97.70;;;;;;6167436;28;20234;-64
2022/08/02 00:38:29;;;;;;;6.27;5.77;;;22.40;97.60;;;;;;6155522;28;20282;-64
2022/08/02 00:41:32;;;;;;;5.63;5.07;;;22.40;97.70;;;;;;6150971;28;20321;-64
2022/08/02 00:44:35;;;;;;;5.40;4.90;;;22.40;97.70;;;;;;6155489;28;20242;-64
2022/08/02 00:47:39;;;;;;;5.00;4.63;;;22.50;97.20;;;;;;6155381;28;20319;-65
2022/08/02 00:50:42;;;;;;;6.07;5.67;;;22.50;97.10;;;;;;6155079;28;20313;-65
2022/08/02 00:53:47;;;;;;;4.97;4.60;;;22.60;97.20;;;;;;6155335;28;20750;-65
2022/08/02 00:56:50;;;;;;;5.07;4.67;;;22.70;96.90;;;;;;6155184;28;20374;-65
2022/08/02 00:59:53;;;;;;;5.30;4.80;;;22.70;97.00;;;;;;6155277;28;20322;-65
2022/08/02 01:02:57;;;;;;;4.73;4.33;;;22.80;97.40;;;;;;6155130;28;20231;-65
2022/08/02 01:06:00;;;;;;;6.73;3.83;;;22.80;97.20;;;;;;6154829;28;20322;-65
2022/08/02 01:09:20;;;;;;;4.77;4.20;;;22.90;97.00;;;;;;6154797;28;20609;-65
2022/08/02 01:12:23;;;;;;;4.60;4.30;;;22.90;96.50;;;;;;6154701;28;20752;-65
2022/08/02 01:15:27;;;;;;;4.43;3.90;;;23.00;96.40;;;;;;6154626;28;20366;-65
2022/08/02 01:18:41;;;;;;;3.53;3.20;;;23.00;96.30;;;;;;6154861;28;20246;-65
2022/08/02 01:22:05;;;;;;;4.20;3.70;;;23.00;96.30;;;;;;6154648;28;20677;-65
2022/08/02 01:25:21;;;;;;;5.20;4.80;;;23.10;96.20;;;;;;6154369;28;20232;-66
2022/08/02 01:28:40;;;;;;;4.77;4.37;;;23.10;96.30;;;;;;6154314;28;20325;-65
2022/08/02 01:31:50;;;;;;;8.57;5.03;;;23.10;96.20;;;;;;6154080;28;20310;-64
2022/08/02 01:34:58;;;;;;;5.40;5.00;;;23.00;96.10;;;;;;6154059;28;20231;-65
2022/08/02 01:38:07;;;;;;;6.80;6.23;;;23.00;96.10;;;;;;6154279;28;20235;-65
2022/08/02 01:41:16;;;;;;;5.83;5.33;;;22.90;96.10;;;;;;6153949;28;20326;-65
2022/08/02 01:44:23;;;;;;;5.90;5.30;;;22.90;96.20;;;;;;6149703;28;20394;-65
2022/08/02 01:47:34;;;;;;;7.03;4.63;;;22.80;96.30;;;;;;6153983;28;20235;-65
2022/08/02 01:50:38;;;;;;;5.23;4.73;;;22.80;96.40;;;;;;6154299;28;20369;-65
2022/08/02 01:53:43;;;;;;;5.30;4.90;;;22.80;96.50;;;;;;6153956;28;20241;-65
2022/08/02 01:56:50;;;;;;;5.10;4.67;;;22.90;96.60;;;;;;6153904;28;20269;-65
2022/08/02 01:59:59;;;;;;;5.20;4.80;;;22.80;96.70;;;;;;6153043;28;20273;-65
2022/08/02 02:03:08;;;;;;;5.03;4.63;;;22.80;96.70;;;;;;6153680;28;20234;-65
2022/08/02 02:06:12;;;;;;;5.13;4.73;;;22.80;96.80;;;;;;6153551;28;20247;-65
2022/08/02 02:09:16;;;;;;;4.77;4.37;;;22.80;97.10;;;;;;6153829;28;20759;-65
2022/08/02 02:12:20;;;;;;;5.53;5.10;;;22.80;97.20;;;;;;6153368;28;20231;-65
2022/08/02 02:15:27;;;;;;;5.60;5.00;;;22.80;97.20;;;;;;6153405;28;20667;-65
2022/08/02 02:18:34;;;;;;;5.30;4.90;;;22.70;97.30;;;;;;6152959;28;20735;-65
2022/08/02 02:21:37;;;;;;;5.00;4.60;;;22.70;97.30;;;;;;6153535;28;20305;-65
2022/08/02 02:24:43;;;;;;;5.73;5.23;;;22.70;97.40;;;;;;6153153;28;20227;-65
2022/08/02 02:27:54;;;;;;;5.00;4.60;;;22.70;97.60;;;;;;6153489;28;20223;-65
2022/08/02 02:31:05;;;;;;;5.00;4.60;;;22.70;97.80;;;;;;6152792;28;20306;-65
2022/08/02 02:34:11;;;;;;;4.87;4.47;;;22.70;97.80;;;;;;6153628;28;20231;-65
2022/08/02 02:37:20;;;;;;;4.87;4.47;;;22.60;97.80;;;;;;6153118;28;20227;-65
2022/08/02 02:40:24;;;;;;;5.20;4.80;;;22.60;98.10;;;;;;6153039;28;20310;-65
2022/08/02 02:43:30;;;;;;;4.53;4.13;;;22.60;97.80;;;;;;6152801;28;20323;-65
2022/08/02 02:46:36;;;;;;;5.33;4.83;;;22.60;98.00;;;;;;6152798;28;20660;-65
2022/08/02 02:49:40;;;;;;;4.70;4.30;;;22.60;97.90;;;;;;6153037;28;20227;-65
2022/08/02 02:52:44;;;;;;;4.23;3.93;;;22.60;97.90;;;;;;6152799;28;20231;-65
2022/08/02 02:55:48;;;;;;;3.80;3.40;;;22.70;97.90;;;;;;6152939;28;20231;-65
2022/08/02 02:59:05;;;;;;;4.07;3.77;;;22.70;97.70;;;;;;6153144;28;20245;-65
2022/08/02 03:02:11;;;;;;;3.80;3.50;;;22.60;97.40;;;;;;6152520;28;20231;-64
2022/08/02 03:05:16;;;;;;;4.00;3.60;;;22.50;97.30;;;;;;6152952;28;20318;-65
2022/08/02 03:08:19;;;;;;;4.40;4.00;;;22.50;97.30;;;;;;6152504;28;20303;-65
2022/08/02 03:11:24;;;;;;;4.10;3.80;;;22.40;97.30;;;;;;6152927;28;20239;-64
2022/08/02 03:14:27;;;;;;;4.33;3.93;;;22.40;97.40;;;;;;6157731;28;20226;-65
2022/08/02 03:17:43;;;;;;;4.00;3.70;;;22.40;97.60;;;;;;6157358;28;20234;-65
2022/08/02 03:20:47;;;;;;;4.70;4.30;;;22.40;97.50;;;;;;6157332;28;20569;-65
2022/08/02 03:23:50;;;;;;;5.10;4.70;;;22.40;97.10;;;;;;6157447;28;20245;-64
2022/08/02 03:26:53;;;;;;;5.27;4.40;;;22.40;96.90;;;;;;6156913;28;20227;-64
2022/08/02 03:29:56;;;;;;;4.47;4.03;;;22.40;96.50;;;;;;6156955;28;20237;-64
2022/08/02 03:33:01;;;;;;;4.50;4.20;;;22.40;96.50;;;;;;6156993;28;20226;-64
2022/08/02 03:36:09;;;;;;;4.47;4.10;;;22.30;96.20;;;;;;6156345;28;20278;-65
2022/08/02 03:39:13;;;;;;;4.53;4.20;;;22.40;96.00;;;;;;6157063;28;20208;-65
2022/08/02 03:42:16;;;;;;;5.87;5.10;;;22.40;95.90;;;;;;6156116;28;20683;-64
2022/08/02 03:45:20;;;;;;;4.83;4.07;;;22.30;95.40;;;;;;6156275;28;20639;-65
2022/08/02 03:48:26;;;;;;;5.30;4.23;;;22.30;95.50;;;;;;6156581;28;20269;-65
2022/08/02 03:51:37;;;;;;;3.70;3.40;;;22.30;95.60;;;;;;6156752;28;20279;-64
2022/08/02 03:54:40;;;;;;;4.60;4.20;;;22.40;95.60;;;;;;6157006;28;20366;-64
2022/08/02 03:57:48;;;;;;;4.43;4.00;;;22.40;95.30;;;;;;6156990;28;20222;-65
2022/08/02 04:00:53;;;;;;;5.73;5.13;;;22.50;95.30;;;;;;6156502;28;20515;-65
2022/08/02 04:03:57;;;;;;;5.70;4.67;;;22.50;94.90;;;;;;6156250;28;20743;-64
2022/08/02 04:07:01;;;;;;;4.60;4.20;;;22.50;94.60;;;;;;6156218;28;20237;-64
2022/08/02 04:10:09;;;;;;;4.60;4.30;;;22.40;94.70;;;;;;6155938;28;20275;-64
2022/08/02 04:13:13;;;;;;;4.87;4.47;;;22.30;95.10;;;;;;6155799;28;20231;-64
2022/08/02 04:16:21;;;;;;;5.03;4.53;;;22.30;96.50;;;;;;6156448;28;20238;-64
2022/08/02 04:19:31;;;;;;;5.30;3.80;;;22.30;96.40;;;;;;6156074;28;20262;-64
2022/08/02 04:22:40;;;;;;;5.60;5.10;;;22.30;98.80;;;;;;6155405;28;20236;-65
2022/08/02 04:25:43;;;;;;;4.70;4.30;;;22.20;99.90;;;;;;6155832;28;20597;-65
2022/08/02 04:28:48;;;;;;;5.27;4.53;;;22.10;99.90;;;;;;6155950;28;20238;-65
2022/08/02 04:31:53;;;;;;;5.37;4.97;;;22.00;99.90;;;;;;6155943;28;20243;-65
2022/08/02 04:34:58;;;;;;;5.23;4.70;;;21.90;99.90;;;;;;6155838;28;20235;-64
2022/08/02 04:38:21;;;;;;;5.40;5.00;;;21.90;99.90;;;;;;6155626;28;20542;-64
2022/08/02 04:41:37;;;;;;;4.70;4.30;;;21.90;99.90;;;;;;6155214;28;20234;-63
2022/08/02 04:44:46;;;;;;;8.13;6.13;;;21.90;99.90;;;;;;6155312;28;20235;-64
2022/08/02 04:47:49;;;;;;;6.70;5.87;;;21.90;99.90;;;;;;6155450;28;20246;-64
2022/08/02 04:51:07;;;;;;;6.20;5.70;;;21.80;99.90;;;;;;6155519;28;20243;-64
2022/08/02 04:54:11;;;;;;;7.57;4.77;;;21.80;99.90;;;;;;6154988;28;20239;-64
2022/08/02 05:00:35;;;;;;;6.43;5.83;;;21.80;99.90;;;;;;6155019;28;20245;-65
2022/08/02 05:03:38;;;;;;;9.47;5.63;;;21.80;99.90;;;;;;6154829;28;20293;-63
2022/08/02 05:06:43;;;;;;;5.97;5.50;;;21.70;99.90;;;;;;6154856;28;20223;-64
2022/08/02 05:09:46;;;;;;;6.67;5.57;;;21.70;99.90;;;;;;6154609;28;20679;-65
2022/08/02 05:12:49;;;;;;;5.97;5.47;;;21.90;99.90;;;;;;6154580;28;20235;-65
2022/08/02 05:15:52;;;;;;;5.70;4.87;;;22.00;99.90;;;;;;6154494;28;20674;-65
2022/08/02 05:18:55;;;;;;;4.77;4.37;;;22.20;99.90;;;;;;6154422;28;20242;-65
2022/08/02 05:22:00;;;;;;;4.90;3.97;;;22.40;99.90;;;;;;6154525;28;20239;-64
2022/08/02 05:25:04;;;;;;;5.97;4.13;;;22.50;99.90;;;;;;6154298;28;20690;-65
2022/08/02 05:28:07;;;;;;;5.83;4.73;;;22.70;99.70;;;;;;6154497;28;20233;-65
2022/08/02 05:31:13;;;;;;;5.07;4.57;;;22.80;98.70;;;;;;6154203;28;20227;-66
2022/08/02 05:34:17;;;;;;;4.60;4.20;;;22.90;98.50;;;;;;6153133;28;20398;-66
2022/08/02 05:37:21;;;;;;;4.63;4.23;;;22.90;97.90;;;;;;6154346;28;20663;-65
2022/08/02 05:40:25;;;;;;;5.33;4.57;;;23.00;97.60;;;;;;6154365;28;20223;-65
2022/08/02 05:43:30;;;;;;;9.23;4.87;;;23.10;97.60;;;;;;6153281;28;20313;-65
2022/08/02 05:46:33;;;;;;;7.87;5.00;;;23.10;97.40;;;;;;6154055;28;20249;-65
2022/08/02 05:49:36;;;;;;;7.83;4.53;;;23.00;97.30;;;;;;6153633;28;20667;-65
2022/08/02 05:52:50;;;;;;;7.10;5.10;;;23.00;97.20;;;;;;6153757;28;20281;-66
2022/08/02 05:56:01;;;;;;;6.77;4.60;;;23.00;97.20;;;;;;6153617;28;20576;-66
2022/08/02 05:59:17;;;;;;;5.60;4.07;;;23.00;97.30;;;;;;6144677;28;20247;-66
2022/08/02 06:02:29;;;;;;;4.40;4.00;;;23.20;97.30;;;;;;6153577;28;20238;-65
2022/08/02 06:05:35;;;;;;;5.37;4.87;;;23.60;97.20;;;;;;6153756;28;20290;-66
2022/08/02 06:08:43;;;;;;;5.73;4.40;;;24.30;95.80;;;;;;6153667;28;20679;-66
2022/08/02 06:11:51;;;;;;;6.10;4.30;;;25.00;94.40;;;;;;6153342;28;20242;-65
2022/08/02 06:15:05;;;;;;;4.27;3.87;;;25.60;93.30;;;;;;6153310;28;20235;-65
2022/08/02 06:18:09;;;;;;;7.57;4.37;;;26.00;92.20;;;;;;6153647;28;20211;-65
2022/08/02 06:21:15;;;;;;;4.90;4.50;;;26.10;91.50;;;;;;6153377;28;20577;-65
2022/08/02 06:24:39;;;;;;;5.47;4.00;;;26.20;91.20;;;;;;6153467;28;20273;-65
2022/08/02 06:27:43;;;;;;;4.47;4.03;;;26.10;90.60;;;;;;6153202;28;20240;-65
2022/08/02 06:30:46;;;;;;;4.13;3.70;;;26.20;90.50;;;;;;6152927;28;20693;-65
2022/08/02 06:33:50;;;;;;;4.70;4.30;;;26.20;90.30;;;;;;6152960;28;20237;-65
2022/08/02 06:37:05;;;;;;;3.87;3.50;;;26.10;90.00;;;;;;6153221;28;20222;-65
2022/08/02 06:40:23;;;;;;;5.00;4.30;;;26.60;90.50;;;;;;6152742;28;20246;-65
2022/08/02 06:43:34;;;;;;;7.00;4.07;;;28.10;86.50;;;;;;6152646;28;20241;-65
2022/08/02 06:46:41;;;;;;;7.57;4.30;;;28.50;81.80;;;;;;6153229;28;20254;-66
2022/08/02 06:50:05;;;;;;;19.30;4.93;;;28.50;81.00;;;;;;6155032;28;20576;-65
2022/08/02 06:53:09;;;;;;;14.40;5.60;;;28.30;80.40;;;;;;6153788;28;20258;-66
2022/08/02 06:56:14;;;;;;;6.30;4.10;;;28.10;80.30;;;;;;6152794;28;20245;-66
2022/08/02 06:59:17;;;;;;;5.23;3.77;;;28.40;80.70;;;;;;6152950;28;20234;-66
2022/08/02 07:02:20;;;;;;;6.50;3.80;;;28.30;79.80;;;;;;6156462;28;20234;-62
2022/08/02 07:05:24;;;;;;;5.03;4.03;;;28.50;80.20;;;;;;6162405;28;20586;-62
2022/08/02 07:08:31;;;;;;;3.57;3.37;;;29.20;78.10;;;;;;6169238;28;20231;-62
2022/08/02 07:11:35;;;;;;;3.77;3.40;;;29.70;75.10;;;;;;6168955;28;20230;-63
2022/08/02 07:14:38;;;;;;;6.30;4.07;;;29.80;74.40;;;;;;6176481;28;20230;-62
2022/08/02 07:17:42;;;;;;;34.10;8.10;;;30.00;72.90;;;;;;6166457;28;20237;-61
2022/08/02 07:20:45;;;;;;;7.10;4.25;;;31.20;71.30;;;;;;6161938;28;20227;-63
2022/08/02 07:23:48;;;;;;;4.35;3.60;;;33.20;65.30;;;;;;6152454;28;20241;-62
2022/08/02 07:26:53;;;;;;;23.25;7.20;;;35.10;59.20;;;;;;6152324;28;20237;-62
2022/08/02 07:30:13;;;;;;;4.03;3.63;;;35.40;55.70;;;;;;6167373;28;20234;-63
2022/08/02 07:33:16;;;;;;;7.05;3.58;;;36.10;53.80;;;;;;6163993;28;20654;-62
2022/08/02 07:36:39;;;;;;;6.90;4.22;;;35.80;52.90;;;;;;6163833;28;20238;-63
2022/08/02 07:39:44;;;;;;;3.90;3.38;;;35.20;53.40;;;;;;6159417;28;20222;-60
2022/08/02 07:42:53;;;;;;;9.23;4.15;;;34.50;53.90;;;;;;6152163;28;20238;-60
2022/08/02 07:46:04;;;;;;;7.88;3.53;;;34.30;55.10;;;;;;6170986;28;20234;-62
2022/08/02 07:49:07;;;;;;;4.75;3.70;;;35.30;54.10;;;;;;6164692;28;20222;-60
2022/08/02 07:52:10;;;;;;;3.40;3.20;;;36.30;51.30;;;;;;6151915;28;20230;-60
2022/08/02 07:55:16;;;;;;;3.13;2.83;;;37.80;50.00;;;;;;6156324;28;20233;-60
2022/08/02 07:58:21;;;;;;;1.98;1.80;;;39.60;45.00;;;;;;6164397;28;20229;-61
2022/08/02 08:01:24;;;;;;;2.60;2.40;;;41.10;41.50;;;;;;6132490;29;20240;-61
2022/08/02 08:04:27;;;;;;;2.95;2.75;;;42.40;39.20;;;;;;6164433;28;20245;-61
2022/08/02 08:07:30;;;;;;;2.67;2.47;;;42.70;36.40;;;;;;6180266;28;20233;-61
2022/08/02 08:10:33;;;;;;;2.92;2.72;;;42.50;36.30;;;;;;6177590;28;20226;-61
2022/08/02 08:13:38;;;;;;;2.88;2.17;;;43.20;35.20;;;;;;6156252;28;20222;-61
2022/08/02 08:16:41;;;;;;;2.38;2.22;;;44.40;33.60;;;;;;6156224;28;20242;-65
2022/08/02 08:19:44;;;;;;;2.67;2.47;;;45.50;32.20;;;;;;6166983;28;20222;-61
2022/08/02 08:22:54;;;;;;;2.33;2.13;;;45.20;31.20;;;;;;6170269;28;20236;-61
2022/08/02 08:25:57;;;;;;;2.75;2.30;;;45.10;31.40;;;;;;6175599;28;20583;-61
2022/08/02 08:29:01;;;;;;;2.63;2.42;;;43.30;31.80;;;;;;6155973;28;20234;-61
2022/08/02 08:32:05;;;;;;;7.38;2.88;;;42.30;34.00;;;;;;6155934;28;20239;-61
2022/08/02 08:35:08;;;;;;;2.97;2.60;;;42.70;33.20;;;;;;6165339;28;20241;-61
2022/08/02 08:38:12;;;;;;;2.60;2.40;;;42.60;33.30;;;;;;6179861;28;20234;-61
2022/08/02 08:41:16;;;;;;;2.45;2.25;;;41.70;34.20;;;;;;6166494;28;20748;-61
2022/08/02 08:44:21;;;;;;;2.75;2.55;;;41.10;35.10;;;;;;6153657;28;20230;-61
2022/08/02 08:47:28;;;;;;;2.95;2.63;;;40.60;35.30;;;;;;6153564;28;20235;-61
2022/08/02 08:50:42;;;;;;;3.60;2.85;;;40.20;36.30;;;;;;6175403;28;20292;-62
2022/08/02 08:53:49;;;;;;;2.90;2.70;;;39.80;36.70;;;;;;6167802;28;20247;-61
2022/08/02 08:56:53;;;;;;;2.60;2.40;;;39.30;37.50;;;;;;6165566;28;20234;-61
2022/08/02 08:59:58;;;;;;;2.65;2.45;;;38.70;38.00;;;;;;6167240;28;20560;-61
2022/08/02 09:03:03;;;;;;;3.10;2.90;;;38.10;39.10;;;;;;6167883;28;20679;-61
2022/08/02 09:06:06;;;;;;;3.53;3.28;;;37.40;40.00;;;;;;6170368;28;20226;-61
2022/08/02 09:09:09;;;;;;;2.90;2.70;;;36.80;41.00;;;;;;6172458;28;20217;-60
2022/08/02 09:12:16;;;;;;;2.90;2.60;;;36.30;41.50;;;;;;6177772;28;20239;-61
2022/08/02 09:15:24;;;;;;;3.10;2.80;;;35.60;42.40;;;;;;6166339;28;20314;-61
2022/08/02 09:18:31;;;;;;;3.40;2.80;;;35.10;43.40;;;;;;6155579;28;20651;-61
2022/08/02 09:21:36;;;;;;;3.00;2.72;;;34.80;44.00;;;;;;6153428;28;20561;-61
2022/08/02 09:24:45;;;;;;;4.47;3.80;;;34.80;44.60;;;;;;6163558;28;20687;-61
2022/08/02 09:27:49;;;;;;;3.90;3.60;;;34.70;45.00;;;;;;6174518;28;20236;-61
2022/08/02 09:30:56;;;;;;;3.58;2.88;;;34.40;45.80;;;;;;6166481;28;20559;-61
2022/08/02 09:34:01;;;;;;;2.80;2.60;;;34.60;45.40;;;;;;6169834;28;20242;-62
2022/08/02 09:37:04;;;;;;;3.08;2.80;;;34.60;44.30;;;;;;6164213;28;20274;-61
2022/08/02 09:40:09;;;;;;;2.83;2.60;;;34.00;45.40;;;;;;6152682;28;20219;-62
2022/08/02 09:43:12;;;;;;;3.40;3.20;;;33.70;45.50;;;;;;6151715;28;20227;-61
2022/08/02 09:46:19;;;;;;;3.30;3.10;;;33.40;46.20;;;;;;6163197;28;20222;-61
2022/08/02 09:49:26;;;;;;;3.58;3.22;;;33.00;47.20;;;;;;6153635;28;20546;-61
2022/08/02 09:52:30;;;;;;;3.58;3.28;;;32.70;48.50;;;;;;6153741;28;20234;-61
2022/08/02 09:55:55;;;;;;;2.92;2.72;;;32.50;48.50;;;;;;6153519;28;20231;-60
2022/08/02 09:59:07;;;;;;;3.40;3.13;;;32.50;48.80;;;;;;6154155;28;20230;-64
2022/08/02 10:02:11;;;;;;;3.85;3.13;;;32.50;48.90;;;;;;6153230;28;20226;-64
2022/08/02 10:05:21;;;;;;;2.92;2.72;;;32.50;49.10;;;;;;6153687;28;20226;-64
2022/08/02 10:08:26;;;;;;;3.90;3.60;;;32.40;49.20;;;;;;6148961;28;20242;-65
2022/08/02 10:11:30;;;;;;;4.07;3.00;;;32.20;49.70;;;;;;6160147;28;20226;-65
2022/08/02 10:14:34;;;;;;;3.33;2.80;;;32.30;50.20;;;;;;6167330;28;20222;-65
2022/08/02 10:17:39;;;;;;;2.83;2.63;;;32.30;50.50;;;;;;6155387;28;20260;-65
2022/08/02 10:20:44;;;;;;;3.58;3.25;;;32.20;50.40;;;;;;6156357;28;20229;-64
2022/08/02 10:23:49;;;;;;;2.65;2.45;;;32.10;50.40;;;;;;6164082;28;20244;-64
2022/08/02 10:26:54;;;;;;;3.10;2.90;;;31.90;50.30;;;;;;6167797;28;20222;-64
2022/08/02 10:29:59;;;;;;;2.67;2.47;;;31.50;51.20;;;;;;6173951;28;20236;-64
2022/08/02 10:33:05;;;;;;;3.10;2.90;;;31.30;52.40;;;;;;6162558;28;20231;-63
2022/08/02 10:36:09;;;;;;;3.17;2.97;;;31.10;52.70;;;;;;6153037;28;20234;-62
2022/08/02 10:39:12;;;;;;;3.33;2.60;;;30.80;52.90;;;;;;6153207;28;20276;-62
2022/08/02 10:42:46;;;;;;;3.13;2.92;;;30.70;53.20;;;;;;6152692;28;20696;-63
2022/08/02 10:45:51;;;;;;;3.17;2.90;;;30.60;54.20;;;;;;6152835;28;20241;-63
2022/08/02 10:49:20;;;;;;;4.10;3.60;;;30.30;57.60;;;;;;6152645;28;20237;-63
2022/08/02 10:52:43;;;;;;;3.85;3.53;;;30.10;58.90;;;;;;6148001;28;20250;-63
2022/08/02 10:55:46;;;;;;;3.70;3.40;;;30.00;59.90;;;;;;6165020;28;20226;-63
2022/08/02 10:59:23;;;;;;;3.33;3.03;;;29.90;60.40;;;;;;6165033;28;20268;-63
2022/08/02 11:02:47;;;;;;;3.13;2.87;;;29.60;60.40;;;;;;6163274;28;20229;-64
2022/08/02 11:06:03;;;;;;;3.77;3.37;;;29.30;61.40;;;;;;6162495;28;20221;-67
2022/08/02 11:09:26;;;;;;;3.50;3.20;;;29.00;62.50;;;;;;6166002;28;20232;-63
2022/08/02 11:13:01;;;;;;;5.87;3.57;;;28.70;63.50;;;;;;6177417;28;20327;-64
2022/08/02 11:16:05;;;;;;;3.27;3.00;;;28.50;65.00;;;;;;6166254;28;20238;-65
2022/08/02 11:19:13;;;;;;;3.97;2.77;;;28.30;64.60;;;;;;6152839;28;20234;-65
2022/08/02 11:22:18;;;;;;;3.53;2.90;;;28.20;65.70;;;;;;6152232;28;20313;-65
2022/08/02 11:25:32;;;;;;;2.73;2.50;;;28.10;65.70;;;;;;6152511;28;20223;-65
2022/08/02 11:28:56;;;;;;;4.97;3.10;;;28.00;66.60;;;;;;6152488;28;20239;-65
2022/08/02 11:31:59;;;;;;;3.60;3.30;;;28.10;65.70;;;;;;6152489;28;20238;-65
2022/08/02 11:35:03;;;;;;;4.73;3.13;;;28.10;65.80;;;;;;6156767;28;20309;-65
2022/08/02 11:38:15;;;;;;;3.10;2.90;;;28.10;66.70;;;;;;6157179;28;20226;-65
2022/08/02 11:41:20;;;;;;;3.40;3.10;;;28.10;69.40;;;;;;6159336;28;20233;-65
2022/08/02 11:44:45;;;;;;;3.27;2.93;;;28.20;69.30;;;;;;6171186;28;20227;-65
2022/08/02 11:47:50;;;;;;;3.23;3.03;;;28.30;68.80;;;;;;6156910;28;20232;-65
2022/08/02 11:51:07;;;;;;;3.13;2.73;;;28.50;69.50;;;;;;6156432;28;20624;-65
2022/08/02 11:54:11;;;;;;;3.03;2.83;;;29.20;67.90;;;;;;6156748;28;20245;-65
2022/08/02 11:57:17;;;;;;;3.10;2.77;;;29.40;67.10;;;;;;6172130;28;20218;-65
2022/08/02 12:00:22;;;;;;;2.97;2.58;;;29.60;65.90;;;;;;6170436;28;20277;-64
2022/08/02 12:03:37;;;;;;;2.92;2.53;;;30.10;64.20;;;;;;6163297;28;20675;-64
2022/08/02 12:06:40;;;;;;;3.47;2.40;;;30.50;61.90;;;;;;6175610;28;20230;-65
2022/08/02 12:09:45;;;;;;;3.22;2.95;;;30.60;60.20;;;;;;6156780;28;20264;-66
2022/08/02 12:12:49;;;;;;;3.13;2.83;;;30.80;59.50;;;;;;6164745;28;20689;-65
2022/08/02 12:19:17;;;;;;;2.78;2.58;;;31.30;58.70;;;;;;6159655;28;20234;-65
2022/08/02 12:19:18;;;;;;;5.15;3.45;;;31.70;56.90;;;;;;6164573;28;20230;-65
2022/08/02 12:22:25;;;;;;;3.50;3.20;;;31.90;57.10;;;;;;6163865;28;20237;-65
2022/08/02 12:25:30;;;;;;;3.20;3.00;;;32.00;56.40;;;;;;6154751;28;20227;-65
2022/08/02 12:28:38;;;;;;;3.55;2.80;;;31.90;56.50;;;;;;6154871;28;20245;-65
2022/08/02 12:31:46;;;;;;;3.30;3.00;;;32.10;56.50;;;;;;6154524;28;20725;-64
2022/08/02 12:35:05;;;;;;;3.75;2.78;;;32.30;55.80;;;;;;6154705;28;20227;-66
2022/08/02 12:38:10;;;;;;;2.92;2.50;;;32.30;56.00;;;;;;6155405;28;20239;-66
2022/08/02 12:41:15;;;;;;;2.70;2.50;;;32.20;56.00;;;;;;6166119;28;20237;-66
2022/08/02 12:44:35;;;;;;;2.90;2.35;;;32.10;55.80;;;;;;6161824;28;20254;-65
2022/08/02 12:47:45;;;;;;;2.80;2.28;;;31.70;56.70;;;;;;6154919;28;20523;-65
2022/08/02 12:50:48;;;;;;;4.13;2.33;;;31.50;57.00;;;;;;6155593;28;20232;-65
2022/08/02 12:53:54;;;;;;;3.13;2.05;;;31.50;57.00;;;;;;6155147;28;20682;-65
2022/08/02 12:57:12;;;;;;;2.72;2.47;;;31.40;57.50;;;;;;6155248;28;20241;-65
2022/08/02 13:00:23;;;;;;;3.20;2.90;;;31.20;58.50;;;;;;6155616;28;20219;-65
2022/08/02 13:03:27;;;;;;;2.88;2.67;;;31.10;59.10;;;;;;6155523;28;20234;-65
2022/08/02 13:06:50;;;;;;;4.47;3.05;;;30.90;59.90;;;;;;6154888;28;20235;-65
2022/08/02 13:09:53;;;;;;;3.03;2.80;;;30.80;60.30;;;;;;6155493;28;20248;-65
2022/08/02 13:13:06;;;;;;;3.30;2.85;;;30.50;61.80;;;;;;6154907;28;20230;-65
2022/08/02 13:16:10;;;;;;;3.40;3.10;;;29.80;64.00;;;;;;6154436;28;20230;-65
2022/08/02 13:19:15;;;;;;;4.22;3.80;;;29.70;64.10;;;;;;6145889;28;20230;-65
2022/08/02 13:22:18;;;;;;;3.90;3.50;;;29.50;64.80;;;;;;6155020;28;20297;-65
2022/08/02 13:25:22;;;;;;;3.67;3.37;;;29.10;66.40;;;;;;6154700;28;20277;-64
2022/08/02 13:28:27;;;;;;;3.90;3.60;;;29.00;68.30;;;;;;6155315;28;20230;-64
2022/08/02 13:31:32;;;;;;;3.93;3.63;;;29.10;68.70;;;;;;6154642;28;20231;-64
2022/08/02 13:34:39;;;;;;;4.10;3.40;;;29.10;69.00;;;;;;6154466;28;20231;-65
2022/08/02 13:37:43;;;;;;;4.23;3.40;;;29.20;69.90;;;;;;6155003;28;20234;-65
2022/08/02 13:44:08;;;;;;;6.10;3.80;;;29.00;69.60;;;;;;6154011;28;20257;-64
2022/08/02 13:47:13;;;;;;;4.37;3.97;;;29.10;70.10;;;;;;6154542;28;20246;-64
2022/08/02 13:50:29;;;;;;;4.00;3.70;;;29.00;71.70;;;;;;6154088;28;20231;-64
2022/08/02 13:53:32;;;;;;;4.63;4.00;;;28.70;71.00;;;;;;6154105;28;20253;-64
2022/08/02 13:56:35;;;;;;;4.07;3.77;;;28.60;71.70;;;;;;6156329;28;20555;-67
2022/08/02 13:59:40;;;;;;;4.43;4.00;;;28.50;70.00;;;;;;6157248;28;20523;-66
2022/08/02 14:03:00;;;;;;;3.97;3.67;;;28.60;70.50;;;;;;6153467;28;20640;-66
2022/08/02 14:06:05;;;;;;;4.27;3.97;;;28.50;71.10;;;;;;6163629;28;20674;-66
2022/08/02 14:09:08;;;;;;;4.63;4.10;;;28.50;70.10;;;;;;6165067;28;20241;-66
2022/08/02 14:12:18;;;;;;;4.27;3.87;;;28.60;70.40;;;;;;6161214;28;20235;-66
2022/08/02 14:15:23;;;;;;;4.50;4.20;;;28.50;70.40;;;;;;6166190;28;20198;-67
2022/08/02 14:18:32;;;;;;;4.90;4.60;;;28.60;70.10;;;;;;6163920;28;20234;-67
2022/08/02 14:21:35;;;;;;;4.70;4.30;;;28.80;68.80;;;;;;6157157;28;20229;-66
2022/08/02 14:24:49;;;;;;;4.73;4.10;;;29.10;67.40;;;;;;6163707;28;20227;-66
2022/08/02 14:27:52;;;;;;;4.30;4.00;;;29.40;66.70;;;;;;6164289;28;20686;-66
2022/08/02 14:30:59;;;;;;;5.77;3.70;;;29.50;66.20;;;;;;6163678;28;20268;-67
2022/08/02 14:34:03;;;;;;;4.00;3.70;;;29.60;65.30;;;;;;6154100;28;20668;-67
2022/08/02 14:37:06;;;;;;;4.07;3.08;;;29.80;64.00;;;;;;6169003;28;20287;-68
2022/08/02 14:40:10;;;;;;;3.30;3.10;;;30.00;63.50;;;;;;6165804;28;20226;-67
2022/08/02 14:46:54;;;;;;;3.67;3.38;;;30.20;64.30;;;;;;6154944;28;20235;-66
2022/08/02 14:49:57;;;;;;;4.78;3.28;;;30.40;65.00;;;;;;6163352;28;20226;-66
2022/08/02 14:53:01;;;;;;;3.10;2.90;;;30.50;65.00;;;;;;6175096;28;20244;-66
2022/08/02 14:56:04;;;;;;;4.05;2.97;;;30.50;64.40;;;;;;6152913;28;20660;-65
2022/08/02 14:59:07;;;;;;;3.08;2.72;;;30.50;64.40;;;;;;6150721;28;20253;-63
2022/08/02 15:02:12;;;;;;;6.15;3.03;;;30.50;64.10;;;;;;6150950;28;20249;-64
2022/08/02 15:05:16;;;;;;;3.70;3.40;;;30.50;63.80;;;;;;6151939;28;20245;-63
2022/08/02 15:08:19;;;;;;;5.68;3.03;;;30.50;63.80;;;;;;6158559;28;20533;-63
2022/08/02 15:11:23;;;;;;;3.25;3.05;;;30.40;64.20;;;;;;6166341;28;20243;-64
2022/08/02 15:14:26;;;;;;;3.80;3.30;;;30.30;63.60;;;;;;6161561;28;20238;-65
2022/08/02 15:17:30;;;;;;;4.05;3.75;;;30.30;63.00;;;;;;6160263;28;20226;-65
2022/08/02 15:20:34;;;;;;;4.22;3.92;;;30.00;62.30;;;;;;6170474;28;20237;-68
2022/08/02 15:23:37;;;;;;;3.30;3.10;;;29.90;62.30;;;;;;6169259;28;20226;-65
2022/08/02 15:26:41;;;;;;;3.53;3.33;;;30.00;61.60;;;;;;6162584;28;20230;-65
2022/08/02 15:29:45;;;;;;;3.40;3.10;;;30.20;64.40;;;;;;6168340;28;20222;-64
2022/08/02 15:32:50;;;;;;;3.70;3.40;;;30.20;64.90;;;;;;6159862;28;20230;-64
2022/08/02 15:35:55;;;;;;;3.63;3.17;;;30.20;64.50;;;;;;6160726;28;20574;-64
2022/08/02 15:38:58;;;;;;;3.42;3.20;;;30.20;64.70;;;;;;6160409;28;20230;-64
2022/08/02 15:42:01;;;;;;;3.67;3.45;;;30.20;64.30;;;;;;6160286;28;20254;-65
2022/08/02 15:45:05;;;;;;;3.38;3.15;;;30.10;64.60;;;;;;6161329;28;20528;-64
2022/08/02 15:48:09;;;;;;;3.83;3.60;;;30.10;64.40;;;;;;6163926;28;20222;-65
2022/08/02 15:51:13;;;;;;;4.22;3.92;;;30.00;64.80;;;;;;6171023;28;20238;-64
2022/08/02 15:54:16;;;;;;;3.60;3.30;;;29.80;64.30;;;;;;6173112;28;20529;-65
2022/08/02 15:57:19;;;;;;;3.53;3.22;;;29.80;64.40;;;;;;6160913;28;20210;-64
2022/08/02 16:00:22;;;;;;;4.40;3.20;;;29.70;64.20;;;;;;6160712;28;20299;-64
2022/08/02 16:03:27;;;;;;;3.47;3.28;;;29.80;65.10;;;;;;6159787;28;20241;-64
2022/08/02 16:06:30;;;;;;;5.10;3.63;;;29.70;63.40;;;;;;6162387;28;21868;-65
2022/08/02 16:09:33;;;;;;;4.00;3.70;;;29.30;64.00;;;;;;6160331;28;20240;-65
2022/08/02 16:12:36;;;;;;;4.30;4.00;;;29.30;63.80;;;;;;6159690;28;20235;-66
2022/08/02 16:15:39;;;;;;;3.97;3.57;;;29.30;64.00;;;;;;6160093;28;20675;-65
2022/08/02 16:18:44;;;;;;;3.67;3.40;;;29.40;63.60;;;;;;6157582;28;20675;-65
2022/08/02 16:21:49;;;;;;;4.13;3.73;;;29.40;63.20;;;;;;6156100;28;20246;-64